Time;durP1;ratioP1;P1;durP2;ratioP2;P2;SDS_P1;SDS_P2;PMS_P1;PMS_P2;Temp;Humidity;BMP_temperature;BMP_pressure;BME280_temperature;BME280_humidity;BME280_pressure;Samples;Min_cycle;Max_cycle;Signal;HPM_P1;HPM_P2
2024/02/17 00:02:49;;;;;;;21.87;17.40;;;;;;;17.56;62.22;99385.34;6951499;28;20345;-80
2024/02/17 00:06:11;;;;;;;21.03;17.80;;;;;;;17.52;62.26;99397.78;6942312;28;20364;-79
2024/02/17 00:09:34;;;;;;;22.37;16.73;;;;;;;17.73;61.92;99383.56;6952579;28;20632;-80
2024/02/17 00:12:55;;;;;;;19.03;15.60;;;;;;;17.46;62.31;99376.09;6968717;28;20242;-81
2024/02/17 00:16:20;;;;;;;20.17;15.13;;;;;;;17.64;61.89;99382.25;6969659;28;20246;-80
2024/02/17 00:19:42;;;;;;;18.63;14.37;;;;;;;17.65;62.20;99391.28;6968024;28;20250;-79
2024/02/17 00:23:05;;;;;;;16.07;13.67;;;;;;;17.76;61.56;99388.53;6957143;28;20236;-81
2024/02/17 00:26:27;;;;;;;18.50;13.70;;;;;;;17.67;61.85;99402.78;6942201;28;20602;-80
2024/02/17 00:29:48;;;;;;;16.67;13.57;;;;;;;17.57;62.23;99400.63;6944107;28;20346;-81
2024/02/17 00:33:09;;;;;;;20.83;16.07;;;;;;;17.39;62.89;99402.63;6969573;28;20807;-79
2024/02/17 00:36:32;;;;;;;16.97;15.17;;;;;;;17.25;62.54;99358.38;6969006;28;20300;-80
2024/02/17 00:39:54;;;;;;;16.70;14.80;;;;;;;17.17;63.83;99409.66;6969452;28;20293;-80
2024/02/17 00:43:16;;;;;;;21.00;14.50;;;;;;;17.55;62.81;99408.22;6969468;28;20245;-78
2024/02/17 00:46:37;;;;;;;18.07;14.63;;;;;;;17.41;63.06;99419.59;6968721;28;20228;-79
2024/02/17 00:49:59;;;;;;;19.33;14.17;;;;;;;17.41;62.83;99405.94;6958301;28;20208;-79
2024/02/17 00:53:21;;;;;;;21.10;15.93;;;;;;;17.45;62.71;99420.78;6966912;28;20206;-77
2024/02/17 00:56:43;;;;;;;18.47;15.40;;;;;;;17.34;63.32;99424.28;6968507;28;20219;-77
2024/02/17 01:00:05;;;;;;;20.67;15.40;;;;;;;17.35;62.63;99407.66;6968103;28;20762;-77
2024/02/17 01:03:27;;;;;;;17.63;14.87;;;;;;;17.35;63.38;99434.13;6968873;28;20636;-80
2024/02/17 01:06:48;;;;;;;19.63;14.73;;;;;;;17.60;62.73;99430.19;6968781;28;20290;-77
2024/02/17 01:10:11;;;;;;;18.40;15.47;;;;;;;17.42;62.71;99437.59;6967297;28;20211;-78
2024/02/17 01:13:33;;;;;;;18.50;14.67;;;;;;;17.19;63.88;99442.94;6968859;28;20745;-78
2024/02/17 01:16:55;;;;;;;18.73;15.00;;;;;;;17.05;64.06;99447.75;6968468;28;20229;-78
2024/02/17 01:20:16;;;;;;;20.87;15.93;;;;;;;16.92;64.37;99438.94;6967930;28;20206;-78
2024/02/17 01:23:38;;;;;;;21.77;15.80;;;;;;;16.97;64.58;99447.22;6969038;28;20698;-78
2024/02/17 01:27:01;;;;;;;20.90;18.53;;;;;;;16.98;64.99;99454.38;6971890;28;20286;-78
2024/02/17 01:30:22;;;;;;;22.47;19.57;;;;;;;17.06;64.67;99446.72;6973937;28;20729;-78
2024/02/17 01:33:44;;;;;;;21.37;17.60;;;;;;;17.27;64.51;99456.25;6960785;28;20299;-80
2024/02/17 01:37:05;;;;;;;23.60;17.57;;;;;;;17.14;64.37;99464.59;6970135;28;20311;-78
2024/02/17 01:40:26;;;;;;;21.33;17.43;;;;;;;17.23;64.50;99463.22;6973255;28;20395;-78
2024/02/17 01:43:49;;;;;;;23.67;19.03;;;;;;;17.26;64.35;99465.47;6965129;28;20345;-79
2024/02/17 01:47:11;;;;;;;22.23;16.83;;;;;;;17.25;63.98;99456.50;6959500;28;20246;-78
2024/02/17 01:50:33;;;;;;;21.67;18.03;;;;;;;16.96;64.98;99465.50;6958144;28;20303;-78
2024/02/17 01:53:55;;;;;;;28.47;20.60;;;;;;;16.57;66.27;99473.31;6973650;28;20212;-79
2024/02/17 01:57:16;;;;;;;26.73;19.13;;;;;;;17.03;65.54;99484.44;6958420;28;20330;-78
2024/02/17 02:00:40;;;;;;;23.27;18.17;;;;;;;17.36;64.67;99479.38;6951472;28;20343;-79
2024/02/17 02:04:01;;;;;;;20.30;17.23;;;;;;;17.45;64.07;99476.13;6965868;28;20266;-77
2024/02/17 02:07:23;;;;;;;23.00;17.53;;;;;;;17.36;64.04;99480.22;6942345;28;20326;-79
2024/02/17 02:10:44;;;;;;;17.03;15.13;;;;;;;17.47;64.00;99482.19;6953807;28;20945;-78
2024/02/17 02:14:13;;;;;;;20.13;16.57;;;;;;;16.89;65.74;99481.09;6965772;28;20239;-78
2024/02/17 02:17:36;;;;;;;19.07;16.77;;;;;;;17.30;64.29;99470.25;6944240;28;20986;-77
2024/02/17 02:20:57;;;;;;;24.50;18.27;;;;;;;17.13;64.71;99485.59;6955565;28;20289;-77
2024/02/17 02:24:19;;;;;;;21.40;16.77;;;;;;;17.05;64.77;99474.19;6970419;28;20239;-78
2024/02/17 02:27:44;;;;;;;21.37;18.20;;;;;;;17.16;65.00;99484.31;6970673;28;20233;-77
2024/02/17 02:31:05;;;;;;;15.43;13.83;;;;;;;16.86;65.50;99489.72;6955420;28;20345;-79
2024/02/17 02:34:27;;;;;;;10.70;9.23;;;;;;;16.58;66.21;99499.50;6945203;28;20719;-76
2024/02/17 02:37:48;;;;;;;9.17;7.90;;;;;;;16.73;66.89;99502.66;6966377;28;20731;-77
2024/02/17 02:41:10;;;;;;;10.47;9.37;;;;;;;16.81;66.26;99522.25;6950776;28;20225;-78
2024/02/17 02:44:33;;;;;;;11.07;8.77;;;;;;;16.45;66.89;99513.25;6944456;28;20211;-77
2024/02/17 02:47:55;;;;;;;7.97;6.97;;;;;;;16.40;66.34;99515.81;6964554;28;20232;-76
2024/02/17 02:51:17;;;;;;;8.30;6.27;;;;;;;16.33;66.63;99518.56;6952384;28;20203;-80
2024/02/17 02:54:39;;;;;;;10.03;6.63;;;;;;;16.50;66.00;99527.00;6944270;28;20676;-78
2024/02/17 02:58:00;;;;;;;7.13;6.50;;;;;;;16.72;65.65;99526.34;6943359;28;20639;-77
2024/02/17 03:01:23;;;;;;;7.03;6.33;;;;;;;16.79;64.82;99537.13;6948596;28;20199;-79
2024/02/17 03:04:45;;;;;;;8.47;6.10;;;;;;;16.43;65.43;99537.97;6943945;28;20297;-77
2024/02/17 03:08:07;;;;;;;7.03;6.43;;;;;;;16.60;65.38;99546.38;6943475;28;20656;-77
2024/02/17 03:11:28;;;;;;;8.33;7.10;;;;;;;16.46;65.15;99555.75;6968201;28;20308;-78
2024/02/17 03:14:50;;;;;;;9.53;7.60;;;;;;;16.71;64.56;99545.63;6971386;28;20213;-78
2024/02/17 03:18:13;;;;;;;10.43;8.20;;;;;;;16.76;63.94;99560.22;6970756;28;20251;-76
2024/02/17 03:21:34;;;;;;;9.70;8.27;;;;;;;16.50;64.62;99563.22;6971035;28;20244;-78
2024/02/17 03:24:56;;;;;;;9.67;8.67;;;;;;;16.45;64.65;99563.06;6970523;28;20212;-76
2024/02/17 03:28:18;;;;;;;12.40;9.83;;;;;;;16.48;64.63;99570.78;6970150;28;20295;-77
2024/02/17 03:31:39;;;;;;;10.93;8.77;;;;;;;16.41;64.66;99580.91;6970565;28;20205;-78
2024/02/17 03:35:03;;;;;;;10.97;9.50;;;;;;;16.61;64.08;99573.38;6971009;28;20670;-78
2024/02/17 03:38:25;;;;;;;12.20;10.17;;;;;;;16.69;63.94;99577.72;6969784;28;20226;-78
2024/02/17 03:41:46;;;;;;;11.43;9.83;;;;;;;16.35;64.55;99598.06;6957750;28;20245;-76
2024/02/17 03:45:09;;;;;;;13.87;10.50;;;;;;;16.60;63.91;99593.50;6958631;28;20206;-77
2024/02/17 03:48:30;;;;;;;11.93;9.90;;;;;;;16.61;63.86;99606.06;6941893;28;20238;-76
2024/02/17 03:51:54;;;;;;;14.83;10.60;;;;;;;16.61;63.89;99594.31;6942646;28;20268;-76
2024/02/17 03:55:15;;;;;;;14.23;10.50;;;;;;;16.51;64.09;99611.16;6967045;28;20685;-77
2024/02/17 03:58:37;;;;;;;13.43;10.67;;;;;;;16.57;63.83;99621.16;6969391;28;20724;-76
2024/02/17 04:01:59;;;;;;;13.63;11.40;;;;;;;16.58;63.95;99630.19;6970381;28;20340;-77
2024/02/17 04:05:20;;;;;;;14.17;11.33;;;;;;;16.50;63.95;99630.44;6969719;28;20219;-77
2024/02/17 04:08:43;;;;;;;14.97;11.57;;;;;;;16.46;64.13;99629.25;6969119;28;20687;-77
2024/02/17 04:12:06;;;;;;;16.63;12.17;;;;;;;16.48;63.76;99638.00;6969750;28;20241;-79
2024/02/17 04:15:27;;;;;;;22.20;13.90;;;;;;;16.31;64.29;99642.28;6969708;28;20209;-79
2024/02/17 04:18:49;;;;;;;22.30;14.83;;;;;;;16.41;64.19;99653.56;6944426;28;20259;-79
2024/02/17 04:22:11;;;;;;;20.23;14.67;;;;;;;16.55;63.68;99658.69;6942286;28;20609;-79
2024/02/17 04:25:35;;;;;;;20.13;14.37;;;;;;;16.20;64.33;99657.47;6942302;28;20287;-79
2024/02/17 04:28:57;;;;;;;21.07;14.87;;;;;;;16.16;64.75;99669.81;6945534;28;20284;-79
2024/02/17 04:32:19;;;;;;;24.30;16.47;;;;;;;16.32;63.86;99676.63;6942171;28;20213;-78
2024/02/17 04:35:40;;;;;;;25.40;15.80;;;;;;;16.45;63.77;99680.13;6964462;28;20692;-78
2024/02/17 04:39:02;;;;;;;22.70;15.50;;;;;;;16.46;63.41;99686.41;6967094;28;20697;-79
2024/02/17 04:42:25;;;;;;;22.63;15.93;;;;;;;16.35;63.61;99687.91;6962320;28;20567;-78
2024/02/17 04:45:46;;;;;;;25.47;16.83;;;;;;;16.33;63.66;99690.00;6942109;28;20317;-78
2024/02/17 04:49:09;;;;;;;25.03;17.00;;;;;;;16.27;64.03;99709.13;6943385;28;20364;-81
2024/02/17 04:52:31;;;;;;;25.30;17.20;;;;;;;16.32;63.88;99712.84;6969909;28;20701;-81
2024/02/17 04:55:52;;;;;;;26.40;18.00;;;;;;;16.27;63.79;99718.09;6968969;28;20676;-79
2024/02/17 04:59:15;;;;;;;27.40;17.37;;;;;;;16.39;63.63;99715.56;6966802;28;20321;-79
2024/02/17 05:02:37;;;;;;;26.40;17.90;;;;;;;16.33;63.88;99730.03;6957360;28;20687;-79
2024/02/17 05:05:59;;;;;;;28.50;18.40;;;;;;;16.31;63.86;99727.50;6941036;28;20701;-79
2024/02/17 05:09:20;;;;;;;28.07;18.27;;;;;;;16.37;63.56;99723.06;6941468;28;20320;-79
2024/02/17 05:12:42;;;;;;;28.57;17.67;;;;;;;16.31;63.90;99737.56;6962087;28;20794;-79
2024/02/17 05:16:06;;;;;;;31.33;18.53;;;;;;;16.20;63.92;99740.97;6965074;28;20295;-82
2024/02/17 05:19:27;;;;;;;29.43;17.73;;;;;;;16.34;63.68;99748.84;6967741;28;20225;-82
2024/02/17 05:22:49;;;;;;;25.30;17.47;;;;;;;16.06;64.40;99753.84;6968563;28;20801;-79
2024/02/17 05:26:10;;;;;;;26.90;19.07;;;;;;;16.26;63.60;99751.81;6945909;28;20296;-80
2024/02/17 05:29:32;;;;;;;26.67;18.23;;;;;;;16.26;63.87;99760.00;6940289;28;20316;-81
2024/02/17 05:32:56;;;;;;;28.03;18.47;;;;;;;16.20;63.64;99760.00;6944690;28;20661;-81
2024/02/17 05:36:17;;;;;;;29.93;18.90;;;;;;;16.25;63.52;99768.38;6947387;28;20543;-80
2024/02/17 05:39:39;;;;;;;28.43;18.27;;;;;;;16.14;63.82;99771.78;6956477;28;20343;-80
2024/02/17 05:43:01;;;;;;;30.90;21.07;;;;;;;16.11;63.93;99783.09;6967901;28;20575;-81
2024/02/17 05:46:23;;;;;;;29.13;20.30;;;;;;;16.30;63.37;99782.16;6967980;28;20209;-82
2024/02/17 05:49:46;;;;;;;29.67;20.40;;;;;;;16.09;63.19;99790.63;6948879;28;20212;-80
2024/02/17 05:53:08;;;;;;;34.93;22.37;;;;;;;16.08;63.48;99781.66;6965669;28;20242;-79
2024/02/17 05:56:29;;;;;;;33.27;22.37;;;;;;;16.08;63.55;99795.25;6967470;28;20803;-78
2024/02/17 05:59:51;;;;;;;34.80;23.20;;;;;;;16.19;63.23;99783.69;6967194;28;20313;-76
2024/02/17 06:03:12;;;;;;;36.83;21.83;;;;;;;16.18;63.34;99794.78;6967794;28;20211;-79
2024/02/17 06:06:35;;;;;;;38.27;22.97;;;;;;;16.07;63.50;99804.47;6966930;28;20623;-78
2024/02/17 06:09:56;;;;;;;38.27;23.87;;;;;;;16.05;63.67;99817.44;6965941;28;20269;-81
2024/02/17 06:13:20;;;;;;;36.43;23.20;;;;;;;16.11;63.27;99827.44;6957203;28;20301;-80
2024/02/17 06:16:41;;;;;;;38.63;23.40;;;;;;;15.92;63.22;99801.16;6968919;28;20227;-80
2024/02/17 06:23:44;;;;;;;43.10;24.70;;;;;;;16.03;63.34;99846.75;6970238;28;20184;-79
2024/02/17 06:27:05;;;;;;;37.70;24.30;;;;;;;16.01;63.28;99850.72;6944926;28;20230;-78
2024/02/17 06:30:27;;;;;;;37.93;23.83;;;;;;;15.77;63.54;99848.72;6969824;28;20353;-80
2024/02/17 06:33:49;;;;;;;42.37;23.83;;;;;;;16.02;63.17;99853.25;6972797;28;20346;-78
2024/02/17 06:37:10;;;;;;;39.37;23.77;;;;;;;15.79;63.73;99855.59;6958888;28;20312;-78
2024/02/17 06:40:33;;;;;;;37.67;23.87;;;;;;;15.94;63.15;99874.41;6944571;28;20676;-78
2024/02/17 06:43:55;;;;;;;38.93;23.10;;;;;;;15.98;63.17;99878.38;6944926;28;20223;-77
2024/02/17 06:47:17;;;;;;;40.33;24.03;;;;;;;15.91;63.05;99882.97;6950836;28;20317;-77
2024/02/17 06:50:38;;;;;;;40.07;23.13;;;;;;;15.68;63.92;99888.88;6959108;28;20240;-78
2024/02/17 06:53:59;;;;;;;41.50;22.83;;;;;;;16.01;64.46;99883.38;6949909;28;20292;-78
2024/02/17 06:57:22;;;;;;;37.93;23.20;;;;;;;15.78;63.67;99888.44;6961532;28;20382;-77
2024/02/17 07:00:44;;;;;;;35.23;20.87;;;;;;;15.47;63.91;99861.94;6945849;28;20348;-79
2024/02/17 07:04:05;;;;;;;34.83;21.33;;;;;;;15.76;62.97;99907.69;6945641;28;20245;-79
2024/02/17 07:07:27;;;;;;;34.47;21.33;;;;;;;15.89;62.86;99901.41;6944085;28;20328;-79
2024/02/17 07:10:48;;;;;;;33.03;20.63;;;;;;;15.79;62.40;99917.31;6955605;28;20305;-77
2024/02/17 07:14:12;;;;;;;32.33;20.13;;;;;;;15.61;62.88;99926.13;6958068;28;20965;-78
2024/02/17 07:17:33;;;;;;;34.23;19.77;;;;;;;15.62;62.61;99929.69;6955561;28;20223;-78
2024/02/17 07:20:55;;;;;;;28.90;18.93;;;;;;;15.70;61.77;99937.63;6956505;28;20666;-77
2024/02/17 07:24:16;;;;;;;34.07;19.40;;;;;;;15.44;62.52;99922.16;6946817;28;20296;-78
2024/02/17 07:27:39;;;;;;;31.70;19.43;;;;;;;15.31;62.65;99948.44;6964654;28;20319;-79
2024/02/17 07:31:02;;;;;;;29.33;18.00;;;;;;;15.50;63.04;99939.50;6969562;28;20353;-77
2024/02/17 07:34:23;;;;;;;33.47;20.47;;;;;;;15.56;62.56;99950.38;6944323;28;20295;-79
2024/02/17 07:37:45;;;;;;;28.90;18.63;;;;;;;15.74;62.45;99955.19;6941227;28;20231;-78
2024/02/17 07:41:06;;;;;;;28.83;18.57;;;;;;;16.20;60.79;99961.38;6941805;28;20355;-78
2024/02/17 07:44:28;;;;;;;22.60;16.57;;;;;;;16.76;59.17;99968.75;6941983;28;20247;-78
2024/02/17 07:47:50;;;;;;;22.47;16.40;;;;;;;17.17;57.71;99977.34;6942616;28;20231;-78
2024/02/17 07:51:12;;;;;;;24.80;16.83;;;;;;;17.26;56.78;99976.03;6942073;28;20879;-78
2024/02/17 07:54:34;;;;;;;28.10;19.27;;;;;;;17.28;56.63;99982.09;6968406;28;20701;-79
2024/02/17 07:57:55;;;;;;;30.63;19.03;;;;;;;17.44;56.55;99984.34;6965500;28;20674;-78
2024/02/17 08:01:19;;;;;;;29.10;19.30;;;;;;;17.49;56.02;99983.66;6968849;28;20210;-75
2024/02/17 08:04:43;;;;;;;26.83;17.80;;;;;;;17.06;57.40;99994.41;6969172;28;20300;-76
2024/02/17 08:08:04;;;;;;;24.50;17.43;;;;;;;17.30;57.46;99988.19;6968298;28;20232;-76
2024/02/17 08:11:35;;;;;;;22.17;17.33;;;;;;;18.16;54.20;100009.13;6966418;28;20278;-78
2024/02/17 08:14:57;;;;;;;19.97;16.03;;;;;;;19.22;51.34;99991.34;6955568;28;20198;-79
2024/02/17 08:18:19;;;;;;;25.67;17.30;;;;;;;19.04;52.64;100011.28;6952507;28;20223;-79
2024/02/17 08:21:41;;;;;;;23.77;16.73;;;;;;;18.66;51.56;100012.63;6967700;28;20289;-79
2024/02/17 08:25:05;;;;;;;26.03;20.83;;;;;;;19.09;51.12;100019.66;6976344;28;20240;-77
2024/02/17 08:28:27;;;;;;;30.63;23.57;;;;;;;19.84;49.26;100013.53;6964767;28;20268;-78
2024/02/17 08:31:49;;;;;;;24.70;19.37;;;;;;;20.34;49.25;100031.19;6968175;28;20304;-79
2024/02/17 08:35:11;;;;;;;17.43;14.33;;;;;;;20.70;46.44;100021.91;6966726;28;20677;-79
2024/02/17 08:38:34;;;;;;;20.20;15.93;;;;;;;21.51;45.66;100034.31;6966710;28;20222;-78
2024/02/17 08:41:56;;;;;;;19.63;15.63;;;;;;;20.64;46.90;100020.13;6957348;28;20204;-79
2024/02/17 08:45:17;;;;;;;20.90;14.83;;;;;;;19.35;49.02;100037.63;6940535;28;20207;-78
2024/02/17 08:48:39;;;;;;;21.13;16.63;;;;;;;18.07;53.43;100040.50;6955602;28;20236;-78
2024/02/17 08:52:01;;;;;;;22.60;16.03;;;;;;;17.86;53.97;100048.25;6963029;28;20837;-79
2024/02/17 08:55:24;;;;;;;22.00;16.23;;;;;;;17.45;55.41;100045.19;6952438;28;20320;-79
2024/02/17 08:58:46;;;;;;;21.57;15.20;;;;;;;17.84;54.93;100055.78;6966443;28;20234;-77
2024/02/17 09:02:08;;;;;;;22.03;15.17;;;;;;;17.15;56.22;100063.94;6966998;28;20349;-77
2024/02/17 09:05:29;;;;;;;19.87;14.87;;;;;;;17.05;56.43;100074.47;6967483;28;20267;-80
2024/02/17 09:08:51;;;;;;;24.93;18.77;;;;;;;17.35;56.23;100066.59;6969025;28;20230;-80
2024/02/17 09:12:14;;;;;;;17.97;14.07;;;;;;;17.28;56.33;100068.50;6973872;28;20277;-79
2024/02/17 09:15:35;;;;;;;20.73;14.93;;;;;;;17.63;56.65;100073.38;6979536;28;20217;-80
2024/02/17 09:18:57;;;;;;;17.43;14.23;;;;;;;18.52;53.26;100087.59;6977026;28;20299;-78
2024/02/17 09:22:18;;;;;;;15.27;12.30;;;;;;;19.01;50.79;100082.00;6972321;28;20645;-77
2024/02/17 09:25:40;;;;;;;16.90;13.17;;;;;;;18.79;50.83;100087.09;6970639;28;20301;-79
2024/02/17 09:29:03;;;;;;;17.93;13.73;;;;;;;18.28;51.79;100105.63;6968162;28;20242;-77
2024/02/17 09:32:24;;;;;;;15.63;12.10;;;;;;;17.96;53.20;100108.59;6948043;28;20254;-79
2024/02/17 09:35:46;;;;;;;12.77;11.17;;;;;;;18.30;52.49;100108.13;6948197;28;20229;-78
2024/02/17 09:39:07;;;;;;;15.33;10.37;;;;;;;18.07;52.62;100121.53;6965885;28;20336;-78
2024/02/17 09:42:29;;;;;;;13.07;11.60;;;;;;;17.87;52.22;100126.31;6941202;28;20233;-78
2024/02/17 09:45:52;;;;;;;14.63;10.70;;;;;;;18.13;52.14;100128.84;6942106;28;20245;-78
2024/02/17 09:49:15;;;;;;;13.90;10.83;;;;;;;17.22;54.24;100135.63;6967570;28;20325;-78
2024/02/17 09:52:38;;;;;;;13.90;12.07;;;;;;;17.23;53.92;100142.75;6972597;28;20344;-78
2024/02/17 09:56:00;;;;;;;14.30;11.27;;;;;;;17.01;53.69;100129.63;6967094;28;20705;-76
2024/02/17 09:59:22;;;;;;;14.17;11.07;;;;;;;17.00;54.05;100147.03;6956678;28;20284;-77
2024/02/17 10:02:47;;;;;;;14.13;11.10;;;;;;;17.08;54.72;100155.81;6961953;28;20261;-77
2024/02/17 10:06:12;;;;;;;15.43;12.00;;;;;;;17.38;53.47;100146.09;6972585;28;20191;-79
2024/02/17 10:09:35;;;;;;;15.40;12.40;;;;;;;17.58;53.35;100165.09;6971315;28;20355;-79
2024/02/17 10:12:58;;;;;;;13.10;11.63;;;;;;;17.54;53.27;100161.13;6972931;28;20300;-79
2024/02/17 10:16:20;;;;;;;15.53;12.50;;;;;;;17.75;52.71;100171.72;6964007;28;20218;-81
2024/02/17 10:19:43;;;;;;;12.57;10.47;;;;;;;17.39;51.51;100147.75;6958135;28;20226;-80
2024/02/17 10:23:05;;;;;;;13.83;10.57;;;;;;;17.34;52.22;100173.97;6956957;28;20289;-80
2024/02/17 10:26:27;;;;;;;12.00;10.03;;;;;;;17.64;51.47;100169.69;6950730;28;20266;-80
2024/02/17 10:29:48;;;;;;;13.83;9.57;;;;;;;18.15;50.06;100163.06;6947550;28;20266;-78
2024/02/17 10:33:10;;;;;;;10.33;8.73;;;;;;;18.33;47.68;100165.09;6945195;28;20749;-79
2024/02/17 10:36:33;;;;;;;11.77;8.87;;;;;;;18.66;47.97;100176.56;6971113;28;20207;-76
2024/02/17 10:39:55;;;;;;;12.60;8.73;;;;;;;18.68;47.18;100188.09;6971726;28;20207;-78
2024/02/17 10:43:16;;;;;;;10.17;9.10;;;;;;;17.98;48.81;100194.66;6950409;28;20294;-77
2024/02/17 10:46:38;;;;;;;12.47;10.47;;;;;;;18.26;48.74;100192.38;6965497;28;20742;-76
2024/02/17 10:50:04;;;;;;;12.23;9.03;;;;;;;18.81;46.34;100197.00;6956105;28;20389;-78
2024/02/17 10:53:32;;;;;;;9.57;8.27;;;;;;;17.25;48.35;100200.63;6972694;28;20336;-79
2024/02/17 10:56:55;;;;;;;30.20;17.97;;;;;;;18.00;48.99;100199.91;6961753;28;20282;-79
2024/02/17 11:00:18;;;;;;;20.93;12.97;;;;;;;18.26;47.48;100189.66;6975870;28;20207;-81
2024/02/17 11:03:41;;;;;;;144.67;54.90;;;;;;;18.27;48.24;100198.69;6955251;28;20281;-79
2024/02/17 11:07:04;;;;;;;14.10;10.90;;;;;;;18.63;46.83;100198.88;6948998;28;20235;-78
2024/02/17 11:10:30;;;;;;;14.03;10.40;;;;;;;18.79;47.45;100195.56;6942993;28;20230;-76
2024/02/17 11:13:52;;;;;;;13.00;10.33;;;;;;;18.78;46.74;100181.06;6959781;28;20209;-78
2024/02/17 11:17:14;;;;;;;14.20;10.77;;;;;;;18.67;47.05;100192.72;6973446;28;20886;-80
2024/02/17 11:20:35;;;;;;;11.10;9.90;;;;;;;18.28;48.70;100182.06;6972269;28;20297;-80
2024/02/17 11:23:58;;;;;;;12.30;10.07;;;;;;;18.40;48.65;100185.78;6972298;28;20226;-79
2024/02/17 11:27:21;;;;;;;10.63;9.53;;;;;;;18.90;46.84;100184.75;6962165;28;20218;-79
2024/02/17 11:30:49;;;;;;;13.43;10.37;;;;;;;18.90;47.84;100187.47;6952431;28;20315;-79
2024/02/17 11:34:11;;;;;;;13.33;11.20;;;;;;;19.12;47.25;100196.94;6962615;28;20198;-80
2024/02/17 11:37:34;;;;;;;10.83;9.20;;;;;;;19.26;46.19;100179.34;6958813;28;20218;-78
2024/02/17 11:40:56;;;;;;;25.77;16.93;;;;;;;19.90;45.27;100195.16;6951448;28;20297;-80
2024/02/17 11:44:19;;;;;;;10.10;9.00;;;;;;;20.35;43.12;100191.75;6945065;28;20241;-80
2024/02/17 11:47:41;;;;;;;11.60;9.00;;;;;;;20.26;42.86;100193.19;6944475;28;20317;-80
2024/02/17 11:51:20;;;;;;;10.90;8.67;;;;;;;20.25;43.16;100194.25;6958916;28;20274;-80
2024/02/17 11:54:42;;;;;;;11.07;8.63;;;;;;;19.19;45.07;100169.50;6968244;28;20229;-80
2024/02/17 11:58:05;;;;;;;13.20;9.60;;;;;;;19.27;45.81;100191.94;6968212;28;20230;-79
2024/02/17 12:01:28;;;;;;;11.43;8.37;;;;;;;18.93;45.37;100197.13;6973699;28;20202;-81
2024/02/17 12:04:50;;;;;;;10.00;8.53;;;;;;;18.99;45.75;100185.28;6972453;28;20217;-80
2024/02/17 12:08:11;;;;;;;11.83;10.20;;;;;;;19.20;45.72;100195.78;6969596;28;20375;-81
2024/02/17 12:11:34;;;;;;;11.13;8.03;;;;;;;19.19;44.72;100155.81;6954192;28;20224;-80
2024/02/17 12:14:56;;;;;;;9.03;7.87;;;;;;;19.84;44.21;100194.19;6955289;28;20203;-80
2024/02/17 12:18:19;;;;;;;10.37;8.17;;;;;;;20.02;43.62;100183.19;6956582;28;20309;-79
2024/02/17 12:21:41;;;;;;;10.07;7.87;;;;;;;19.36;43.13;100171.44;6986504;28;20706;-79
2024/02/17 12:25:04;;;;;;;9.43;7.73;;;;;;;19.47;42.51;100186.25;6968555;28;20211;-77
2024/02/17 12:28:26;;;;;;;7.73;6.90;;;;;;;19.88;43.36;100180.88;6952819;28;20258;-79
2024/02/17 12:31:50;;;;;;;7.13;5.47;;;;;;;20.87;40.40;100173.63;6964351;28;20208;-80
2024/02/17 12:35:14;;;;;;;7.37;6.00;;;;;;;19.21;41.04;100173.69;6965020;28;20205;-78
2024/02/17 12:38:36;;;;;;;7.63;6.07;;;;;;;19.95;41.23;100178.88;6953862;28;20305;-79
2024/02/17 12:42:02;;;;;;;6.13;5.50;;;;;;;18.93;43.32;100184.28;6975403;28;20661;-75
2024/02/17 12:45:25;;;;;;;5.83;5.23;;;;;;;18.67;42.97;100180.94;6940572;28;20211;-79
2024/02/17 12:48:49;;;;;;;5.97;4.63;;;;;;;19.12;42.55;100185.13;6939974;28;20329;-76
2024/02/17 12:52:12;;;;;;;5.97;4.30;;;;;;;18.99;42.16;100190.75;6940871;28;20276;-78
2024/02/17 12:55:33;;;;;;;4.27;3.87;;;;;;;19.12;41.75;100194.19;6943395;28;21783;-80
2024/02/17 12:58:57;;;;;;;8.03;6.70;;;;;;;19.25;42.64;100196.81;6955877;28;20234;-80
2024/02/17 13:02:18;;;;;;;6.90;6.13;;;;;;;18.57;44.37;100195.13;6942126;28;20195;-80
2024/02/17 13:05:42;;;;;;;7.47;5.97;;;;;;;18.50;44.47;100197.06;6943758;28;20372;-80
2024/02/17 13:09:06;;;;;;;6.47;5.80;;;;;;;19.03;43.43;100200.16;6966553;28;20258;-80
2024/02/17 13:12:28;;;;;;;5.63;5.00;;;;;;;18.80;43.42;100200.81;6953370;28;20214;-80
2024/02/17 13:15:50;;;;;;;6.47;5.60;;;;;;;18.63;43.44;100202.41;6944888;28;20202;-82
2024/02/17 13:19:12;;;;;;;8.60;5.60;;;;;;;18.95;43.97;100197.72;6965633;28;20305;-79
2024/02/17 13:22:33;;;;;;;7.43;5.50;;;;;;;19.09;42.90;100207.44;6942699;28;20207;-79
2024/02/17 13:25:56;;;;;;;8.73;5.97;;;;;;;18.79;43.44;100201.03;6943054;28;20215;-80
2024/02/17 13:29:18;;;;;;;6.33;5.47;;;;;;;18.44;43.92;100203.41;6942143;28;20719;-80
2024/02/17 13:32:42;;;;;;;8.63;6.00;;;;;;;18.72;43.72;100203.81;6940033;28;20242;-77
2024/02/17 13:36:05;;;;;;;86.17;39.93;;;;;;;18.64;43.93;100200.53;6940795;28;20235;-80
2024/02/17 13:39:26;;;;;;;9.50;7.03;;;;;;;17.90;45.55;100205.84;6922309;28;20257;-79
2024/02/17 13:42:49;;;;;;;7.93;6.23;;;;;;;18.17;45.54;100206.53;6942935;28;20281;-79
2024/02/17 13:46:11;;;;;;;8.30;5.93;;;;;;;17.85;44.63;100194.75;6949470;28;20736;-80
2024/02/17 13:49:32;;;;;;;6.53;5.93;;;;;;;18.27;44.09;100199.53;6962096;28;20313;-77
2024/02/17 13:52:54;;;;;;;9.13;5.80;;;;;;;18.78;44.00;100197.47;6967455;28;20213;-77
2024/02/17 13:56:15;;;;;;;7.57;5.97;;;;;;;18.68;43.81;100208.06;6959143;28;20210;-80
2024/02/17 13:59:38;;;;;;;9.47;6.00;;;;;;;18.42;43.65;100197.34;6965046;28;20368;-77
2024/02/17 14:03:01;;;;;;;6.47;5.77;;;;;;;18.47;44.28;100216.66;6966890;28;20305;-78
2024/02/17 14:06:22;;;;;;;6.70;5.10;;;;;;;18.55;44.21;100213.63;6966770;28;20217;-79
2024/02/17 14:09:44;;;;;;;5.90;5.10;;;;;;;18.75;42.52;100188.88;6966409;28;20381;-76
2024/02/17 14:13:05;;;;;;;6.20;5.10;;;;;;;18.30;43.77;100220.09;6967384;28;20238;-76
2024/02/17 14:16:29;;;;;;;5.83;4.90;;;;;;;17.88;43.77;100158.81;6966790;28;20217;-77
2024/02/17 14:19:50;;;;;;;6.27;5.30;;;;;;;18.90;43.40;100216.69;6966805;28;20661;-79
2024/02/17 14:23:12;;;;;;;8.10;5.83;;;;;;;17.64;44.54;100214.16;6966052;28;20353;-77
2024/02/17 14:26:33;;;;;;;7.83;5.20;;;;;;;18.26;44.02;100222.44;6958817;28;20301;-77
2024/02/17 14:29:55;;;;;;;7.57;5.40;;;;;;;18.14;44.18;100221.47;6955280;28;20273;-78
2024/02/17 14:33:18;;;;;;;7.77;5.10;;;;;;;18.26;44.42;100221.56;6960865;28;20243;-80
2024/02/17 14:36:39;;;;;;;7.03;6.00;;;;;;;18.69;44.20;100225.31;6981251;28;20335;-78
2024/02/17 14:40:01;;;;;;;9.07;5.77;;;;;;;18.68;44.42;100243.56;6977031;28;20348;-79
2024/02/17 14:43:22;;;;;;;6.67;6.00;;;;;;;18.33;44.97;100231.44;6963596;28;20301;-77
2024/02/17 14:46:44;;;;;;;6.47;5.50;;;;;;;18.30;45.01;100239.19;6965900;28;20246;-79
2024/02/17 14:50:08;;;;;;;7.27;6.57;;;;;;;18.26;45.22;100235.22;6970497;28;20231;-80
2024/02/17 14:53:29;;;;;;;8.73;6.67;;;;;;;18.39;45.49;100244.22;6960486;28;20304;-79
2024/02/17 14:56:51;;;;;;;6.40;5.80;;;;;;;17.98;45.94;100241.06;6960794;28;20360;-78
2024/02/17 15:00:14;;;;;;;10.13;6.37;;;;;;;18.44;45.79;100235.34;6956374;28;20300;-77
2024/02/17 15:03:35;;;;;;;6.47;5.80;;;;;;;18.12;45.38;100250.03;6954271;28;20280;-77
2024/02/17 15:06:58;;;;;;;7.87;6.20;;;;;;;18.23;45.87;100243.88;6968399;28;20309;-77
2024/02/17 15:10:19;;;;;;;7.40;6.03;;;;;;;17.84;46.45;100247.66;6955024;28;20579;-77
2024/02/17 15:13:41;;;;;;;7.20;6.50;;;;;;;18.19;45.87;100257.13;6959825;28;20222;-77
2024/02/17 15:17:03;;;;;;;7.40;5.97;;;;;;;18.35;45.64;100259.34;6954253;28;20313;-77
2024/02/17 15:20:25;;;;;;;10.83;6.40;;;;;;;18.61;45.29;100261.94;6955374;28;20249;-77
2024/02/17 15:23:48;;;;;;;8.53;6.53;;;;;;;18.63;45.51;100253.50;6964508;28;20217;-77
2024/02/17 15:27:11;;;;;;;9.30;6.40;;;;;;;18.28;45.89;100269.47;6955249;28;20230;-76
2024/02/17 15:30:33;;;;;;;19.47;8.77;;;;;;;17.74;47.26;100269.09;6953946;28;20262;-76
2024/02/17 15:33:54;;;;;;;13.40;7.73;;;;;;;17.89;47.27;100271.56;6958704;28;20306;-77